Alamo, Georgia
Current Conditions -  °F | °C
As of 10:15 PM on Monday 20 Oct 2014 (Local Time) from KAZE Reporting Station
Broken Clouds Broken Clouds  
Wind Chill: 68°   Ceiling: 4700
Heat Index: 68°   Visibility: 10mi
Dew Point: 64°   Wind: 3mph
Humidity: 87%   Direction: 60°ENE
Pressure: 30"   Gusts: NA
Location:  32.15°N, 82.78°W
Report Text: KAZE 210215Z AUTO 06003KT 10SM BKN047 20/18 A3000 RMK AO2 T01990176
Loading
Personal Weather Stations






























Interactive Weather Map
Tropical Storm Tracking
New forecast layout! Learn more

10-Day Weather Forecast

Advertisements
Track Severe Weather on mobile